sensor_id;sensor_type;location;lat;lon;timestamp;pressure;altitude;pressure_sealevel;temperature;humidity
63582;BME280;49727;51.078;17.066;2023-11-18T00:06:10;100340.00;;;4.04;74.48
63582;BME280;49727;51.078;17.066;2023-11-18T00:21:11;100334.78;;;3.93;74.73
63582;BME280;49727;51.078;17.066;2023-11-18T00:36:11;100337.53;;;3.91;75.11
63582;BME280;49727;51.078;17.066;2023-11-18T00:51:12;100354.31;;;3.90;75.20
63582;BME280;49727;51.078;17.066;2023-11-18T01:06:13;100369.25;;;3.89;75.19
63582;BME280;49727;51.078;17.066;2023-11-18T01:21:15;100383.06;;;3.82;75.56
63582;BME280;49727;51.078;17.066;2023-11-18T01:36:17;100408.25;;;3.75;76.05
63582;BME280;49727;51.078;17.066;2023-11-18T01:51:18;100416.38;;;3.71;76.66
63582;BME280;49727;51.078;17.066;2023-11-18T02:06:20;100431.34;;;3.71;76.66
63582;BME280;49727;51.078;17.066;2023-11-18T02:21:22;100452.69;;;3.68;76.81
63582;BME280;49727;51.078;17.066;2023-11-18T02:36:31;100469.81;;;3.73;76.49
63582;BME280;49727;51.078;17.066;2023-11-18T02:51:36;100489.31;;;3.71;76.68
63582;BME280;49727;51.078;17.066;2023-11-18T03:06:39;100510.91;;;3.76;76.63
63582;BME280;49727;51.078;17.066;2023-11-18T03:21:41;100525.63;;;3.79;76.75
63582;BME280;49727;51.078;17.066;2023-11-18T03:36:45;100548.25;;;3.70;77.24
63582;BME280;49727;51.078;17.066;2023-11-18T03:51:45;100555.97;;;3.49;76.40
63582;BME280;49727;51.078;17.066;2023-11-18T04:06:46;100564.31;;;3.31;77.20
63582;BME280;49727;51.078;17.066;2023-11-18T04:21:47;100584.69;;;3.41;77.13
63582;BME280;49727;51.078;17.066;2023-11-18T04:36:49;100587.22;;;3.42;77.12
63582;BME280;49727;51.078;17.066;2023-11-18T04:51:51;100597.13;;;3.38;77.40
63582;BME280;49727;51.078;17.066;2023-11-18T05:06:51;100599.31;;;3.45;77.61
63582;BME280;49727;51.078;17.066;2023-11-18T05:21:51;100626.38;;;3.47;77.49
63582;BME280;49727;51.078;17.066;2023-11-18T05:36:52;100624.91;;;3.43;77.25
63582;BME280;49727;51.078;17.066;2023-11-18T05:51:54;100647.19;;;3.50;77.82
63582;BME280;49727;51.078;17.066;2023-11-18T06:06:56;100662.19;;;3.49;77.37
63582;BME280;49727;51.078;17.066;2023-11-18T06:21:56;100682.16;;;3.41;77.39
63582;BME280;49727;51.078;17.066;2023-11-18T06:36:57;100689.53;;;3.35;77.16
63582;BME280;49727;51.078;17.066;2023-11-18T06:51:57;100705.03;;;3.27;77.44
63582;BME280;49727;51.078;17.066;2023-11-18T07:06:57;100731.97;;;3.44;77.53
63582;BME280;49727;51.078;17.066;2023-11-18T07:21:58;100737.50;;;3.52;77.52
63582;BME280;49727;51.078;17.066;2023-11-18T07:36:59;100745.09;;;3.81;77.29
63582;BME280;49727;51.078;17.066;2023-11-18T07:51:59;100766.84;;;3.96;76.86
63582;BME280;49727;51.078;17.066;2023-11-18T08:06:59;100772.78;;;4.11;76.47
63582;BME280;49727;51.078;17.066;2023-11-18T08:22:00;100788.19;;;4.28;76.24
63582;BME280;49727;51.078;17.066;2023-11-18T08:37:01;100775.13;;;4.96;75.72
63582;BME280;49727;51.078;17.066;2023-11-18T08:52:03;100816.88;;;5.48;74.82
63582;BME280;49727;51.078;17.066;2023-11-18T09:07:10;100834.03;;;5.19;74.79
63582;BME280;49727;51.078;17.066;2023-11-18T09:22:10;100842.53;;;4.78;74.87
63582;BME280;49727;51.078;17.066;2023-11-18T09:37:13;100866.94;;;4.57;74.99
63582;BME280;49727;51.078;17.066;2023-11-18T09:52:16;100862.63;;;4.56;74.78
63582;BME280;49727;51.078;17.066;2023-11-18T10:07:22;100877.66;;;4.67;74.83
63582;BME280;49727;51.078;17.066;2023-11-18T10:22:29;100880.94;;;4.82;74.67
63582;BME280;49727;51.078;17.066;2023-11-18T10:37:29;100896.81;;;4.93;74.04
63582;BME280;49727;51.078;17.066;2023-11-18T10:52:30;100908.00;;;5.19;73.53
63582;BME280;49727;51.078;17.066;2023-11-18T11:07:32;100913.94;;;6.02;72.97
63582;BME280;49727;51.078;17.066;2023-11-18T11:22:38;100922.78;;;6.89;71.75
63582;BME280;49727;51.078;17.066;2023-11-18T11:37:41;100934.19;;;8.34;69.82
63582;BME280;49727;51.078;17.066;2023-11-18T11:52:46;100941.47;;;14.07;58.53
63582;BME280;49727;51.078;17.066;2023-11-18T12:07:49;100955.34;;;9.99;62.47
63582;BME280;49727;51.078;17.066;2023-11-18T12:23:03;100966.13;;;8.13;63.75
63582;BME280;49727;51.078;17.066;2023-11-18T12:53:28;100962.63;;;6.99;65.17
63582;BME280;49727;51.078;17.066;2023-11-18T13:08:29;100962.34;;;6.69;65.32
63582;BME280;49727;51.078;17.066;2023-11-18T13:23:29;100967.31;;;6.30;65.64
63582;BME280;49727;51.078;17.066;2023-11-18T13:38:30;100968.88;;;6.21;66.66
63582;BME280;49727;51.078;17.066;2023-11-18T13:53:31;100970.09;;;6.06;67.28
63582;BME280;49727;51.078;17.066;2023-11-18T14:08:32;100962.97;;;6.18;66.81
63582;BME280;49727;51.078;17.066;2023-11-18T14:23:34;100968.25;;;6.29;65.84
63582;BME280;49727;51.078;17.066;2023-11-18T14:38:34;100982.66;;;5.57;66.46
63582;BME280;49727;51.078;17.066;2023-11-18T14:53:34;100993.66;;;5.28;66.96
63582;BME280;49727;51.078;17.066;2023-11-18T15:08:35;100997.56;;;5.11;67.41
63582;BME280;49727;51.078;17.066;2023-11-18T15:23:35;100993.09;;;5.00;67.90
63582;BME280;49727;51.078;17.066;2023-11-18T15:38:35;100979.56;;;4.81;68.25
63582;BME280;49727;51.078;17.066;2023-11-18T15:53:36;100988.63;;;4.65;68.37
63582;BME280;49727;51.078;17.066;2023-11-18T16:08:36;100986.75;;;4.54;68.50
63582;BME280;49727;51.078;17.066;2023-11-18T16:23:37;101004.53;;;4.39;68.76
63582;BME280;49727;51.078;17.066;2023-11-18T16:38:39;100997.53;;;4.14;69.16
63582;BME280;49727;51.078;17.066;2023-11-18T16:53:41;101006.06;;;4.18;69.20
63582;BME280;49727;51.078;17.066;2023-11-18T17:08:41;101006.41;;;4.00;69.59
63582;BME280;49727;51.078;17.066;2023-11-18T17:23:42;101011.50;;;3.78;69.78
63582;BME280;49727;51.078;17.066;2023-11-18T17:38:43;101004.53;;;3.77;70.56
63582;BME280;49727;51.078;17.066;2023-11-18T17:53:44;100989.66;;;3.76;70.85
63582;BME280;49727;51.078;17.066;2023-11-18T18:08:47;100985.75;;;3.81;71.47
63582;BME280;49727;51.078;17.066;2023-11-18T18:23:47;100953.66;;;3.50;71.60
63582;BME280;49727;51.078;17.066;2023-11-18T18:38:48;100965.13;;;3.49;72.69
63582;BME280;49727;51.078;17.066;2023-11-18T18:53:49;100935.31;;;3.49;72.66
63582;BME280;49727;51.078;17.066;2023-11-18T19:08:50;100934.03;;;3.54;72.68
63582;BME280;49727;51.078;17.066;2023-11-18T19:23:53;100937.00;;;3.37;72.93
63582;BME280;49727;51.078;17.066;2023-11-18T19:38:53;100910.97;;;3.32;73.21
63582;BME280;49727;51.078;17.066;2023-11-18T19:53:53;100883.06;;;3.30;73.61
63582;BME280;49727;51.078;17.066;2023-11-18T20:08:54;100877.59;;;3.20;74.41
63582;BME280;49727;51.078;17.066;2023-11-18T20:23:54;100865.28;;;3.08;74.33
63582;BME280;49727;51.078;17.066;2023-11-18T20:38:54;100829.16;;;2.97;74.62
63582;BME280;49727;51.078;17.066;2023-11-18T20:53:56;100822.00;;;2.86;75.22
63582;BME280;49727;51.078;17.066;2023-11-18T21:08:57;100811.66;;;2.70;75.60
63582;BME280;49727;51.078;17.066;2023-11-18T21:23:57;100800.06;;;2.60;75.42
63582;BME280;49727;51.078;17.066;2023-11-18T21:38:57;100800.47;;;2.41;75.99
63582;BME280;49727;51.078;17.066;2023-11-18T21:53:58;100773.31;;;2.27;76.33
63582;BME280;49727;51.078;17.066;2023-11-18T22:08:58;100749.75;;;2.26;76.29
63582;BME280;49727;51.078;17.066;2023-11-18T22:23:58;100736.19;;;2.32;76.16
63582;BME280;49727;51.078;17.066;2023-11-18T22:38:59;100742.91;;;2.36;76.82
63582;BME280;49727;51.078;17.066;2023-11-18T22:53:59;100724.63;;;2.22;76.92
63582;BME280;49727;51.078;17.066;2023-11-18T23:08:59;100683.72;;;2.17;76.84
63582;BME280;49727;51.078;17.066;2023-11-18T23:24:00;100661.81;;;2.04;77.32
63582;BME280;49727;51.078;17.066;2023-11-18T23:39:01;100646.25;;;1.88;77.05
63582;BME280;49727;51.078;17.066;2023-11-18T23:54:01;100642.44;;;1.79;77.88
